sensor_id;sensor_type;location;lat;lon;timestamp;pressure;altitude;pressure_sealevel;temperature;humidity
20115;BME280;10218;42.874;25.320;2022-09-30T06:55:17;96925.03;;;21.37;100.00
20115;BME280;10218;42.874;25.320;2022-09-30T06:57:45;96918.78;;;22.46;100.00
20115;BME280;10218;42.874;25.320;2022-09-30T07:00:14;96924.78;;;21.38;100.00
20115;BME280;10218;42.874;25.320;2022-09-30T07:02:47;96931.75;;;22.01;100.00
20115;BME280;10218;42.874;25.320;2022-09-30T07:05:18;96942.03;;;22.76;100.00
20115;BME280;10218;42.874;25.320;2022-09-30T07:07:46;96941.72;;;22.94;100.00
20115;BME280;10218;42.874;25.320;2022-09-30T07:10:15;96946.25;;;22.23;100.00
20115;BME280;10218;42.874;25.320;2022-09-30T07:12:42;96914.97;;;22.47;100.00
20115;BME280;10218;42.874;25.320;2022-09-30T07:15:10;96954.09;;;23.33;100.00
20115;BME280;10218;42.874;25.320;2022-09-30T07:17:39;96950.84;;;22.83;100.00
20115;BME280;10218;42.874;25.320;2022-09-30T07:20:09;96950.16;;;23.78;96.89
20115;BME280;10218;42.874;25.320;2022-09-30T07:22:40;96956.81;;;23.87;91.55
20115;BME280;10218;42.874;25.320;2022-09-30T07:25:08;96947.97;;;24.12;93.15
20115;BME280;10218;42.874;25.320;2022-09-30T07:27:37;96946.53;;;24.41;83.98
20115;BME280;10218;42.874;25.320;2022-09-30T07:30:04;96946.69;;;24.77;79.40
20115;BME280;10218;42.874;25.320;2022-09-30T07:32:38;96957.31;;;24.68;78.87
20115;BME280;10218;42.874;25.320;2022-09-30T07:35:06;96960.53;;;25.27;70.21
20115;BME280;10218;42.874;25.320;2022-09-30T07:37:33;96955.56;;;24.99;75.69
20115;BME280;10218;42.874;25.320;2022-09-30T07:40:07;96963.59;;;25.56;71.21
20115;BME280;10218;42.874;25.320;2022-09-30T07:42:37;96955.28;;;25.10;74.14
20115;BME280;10218;42.874;25.320;2022-09-30T07:45:11;96953.69;;;25.40;63.65
20115;BME280;10218;42.874;25.320;2022-09-30T07:47:42;96952.66;;;25.76;66.46
20115;BME280;10218;42.874;25.320;2022-09-30T07:50:09;96959.25;;;26.26;59.14
20115;BME280;10218;42.874;25.320;2022-09-30T07:52:38;96959.59;;;24.91;62.47
20115;BME280;10218;42.874;25.320;2022-09-30T07:55:05;96961.97;;;26.06;61.51
20115;BME280;10218;42.874;25.320;2022-09-30T07:57:32;96964.44;;;26.27;58.83
20115;BME280;10218;42.874;25.320;2022-09-30T08:00:00;96973.72;;;26.16;57.90
20115;BME280;10218;42.874;25.320;2022-09-30T08:02:37;96974.25;;;26.49;56.28
20115;BME280;10218;42.874;25.320;2022-09-30T08:05:05;96971.12;;;26.91;54.77
20115;BME280;10218;42.874;25.320;2022-09-30T08:07:32;96976.50;;;27.60;51.89
20115;BME280;10218;42.874;25.320;2022-09-30T08:10:00;96975.41;;;27.95;49.41
20115;BME280;10218;42.874;25.320;2022-09-30T08:12:29;96980.78;;;27.76;47.70
20115;BME280;10218;42.874;25.320;2022-09-30T08:14:59;96986.59;;;27.70;49.03
20115;BME280;10218;42.874;25.320;2022-09-30T08:17:26;96986.34;;;27.66;48.66
20115;BME280;10218;42.874;25.320;2022-09-30T08:19:53;96975.06;;;28.64;45.71
20115;BME280;10218;42.874;25.320;2022-09-30T08:22:20;96992.28;;;28.99;43.94
20115;BME280;10218;42.874;25.320;2022-09-30T08:24:49;96988.06;;;28.82;44.84
20115;BME280;10218;42.874;25.320;2022-09-30T08:27:17;96957.22;;;29.09;44.58
20115;BME280;10218;42.874;25.320;2022-09-30T08:29:44;96991.03;;;29.10;45.31
20115;BME280;10218;42.874;25.320;2022-09-30T08:32:33;96986.56;;;28.95;44.46
20115;BME280;10218;42.874;25.320;2022-09-30T08:35:03;96978.69;;;29.50;43.17
20115;BME280;10218;42.874;25.320;2022-09-30T08:37:32;96993.53;;;28.59;43.88
20115;BME280;10218;42.874;25.320;2022-09-30T08:40:02;96983.16;;;28.79;43.62
20115;BME280;10218;42.874;25.320;2022-09-30T08:45:16;97004.72;;;28.91;42.61
20115;BME280;10218;42.874;25.320;2022-09-30T08:50:35;97002.12;;;29.66;42.62
20115;BME280;10218;42.874;25.320;2022-09-30T08:53:16;97006.72;;;30.40;40.11
20115;BME280;10218;42.874;25.320;2022-09-30T08:55:50;97012.16;;;27.99;42.98
20115;BME280;10218;42.874;25.320;2022-09-30T08:58:36;97013.72;;;29.63;41.80
20115;BME280;10218;42.874;25.320;2022-09-30T09:01:31;97015.22;;;29.93;40.12
20115;BME280;10218;42.874;25.320;2022-09-30T09:04:02;97004.00;;;30.22;39.62
20115;BME280;10218;42.874;25.320;2022-09-30T09:12:10;97019.59;;;31.32;38.59
20115;BME280;10218;42.874;25.320;2022-09-30T09:20:59;97027.66;;;30.23;37.60
20115;BME280;10218;42.874;25.320;2022-09-30T09:23:31;97026.88;;;31.28;36.45
20115;BME280;10218;42.874;25.320;2022-09-30T09:25:58;97028.59;;;31.37;36.11
20115;BME280;10218;42.874;25.320;2022-09-30T09:28:47;97030.88;;;33.05;33.06
20115;BME280;10218;42.874;25.320;2022-09-30T09:31:19;97022.00;;;33.17;33.61
20115;BME280;10218;42.874;25.320;2022-09-30T09:33:47;97024.41;;;33.18;32.99
20115;BME280;10218;42.874;25.320;2022-09-30T09:47:26;97016.59;;;31.69;34.76
20115;BME280;10218;42.874;25.320;2022-09-30T09:50:00;97014.25;;;32.43;32.08
20115;BME280;10218;42.874;25.320;2022-09-30T09:55:06;97011.78;;;31.97;33.30
20115;BME280;10218;42.874;25.320;2022-09-30T09:57:36;96996.88;;;32.07;32.12
20115;BME280;10218;42.874;25.320;2022-09-30T10:00:07;97026.06;;;31.14;33.16
20115;BME280;10218;42.874;25.320;2022-09-30T10:03:09;97018.03;;;31.39;32.73
20115;BME280;10218;42.874;25.320;2022-09-30T10:05:38;97016.94;;;32.88;31.48
20115;BME280;10218;42.874;25.320;2022-09-30T10:08:20;97017.84;;;32.66;31.70
20115;BME280;10218;42.874;25.320;2022-09-30T10:10:49;97007.84;;;32.12;31.73
20115;BME280;10218;42.874;25.320;2022-09-30T10:15:47;97016.75;;;32.31;31.64
20115;BME280;10218;42.874;25.320;2022-09-30T10:18:19;97013.03;;;32.36;31.67
20115;BME280;10218;42.874;25.320;2022-09-30T10:20:54;97004.44;;;33.30;32.75
20115;BME280;10218;42.874;25.320;2022-09-30T10:23:28;97013.09;;;33.45;31.03
20115;BME280;10218;42.874;25.320;2022-09-30T10:28:53;97016.59;;;33.94;30.09
20115;BME280;10218;42.874;25.320;2022-09-30T10:34:26;97013.16;;;34.14;29.87
20115;BME280;10218;42.874;25.320;2022-09-30T10:36:56;97013.00;;;34.37;30.84
20115;BME280;10218;42.874;25.320;2022-09-30T10:39:34;97013.66;;;33.82;30.06
20115;BME280;10218;42.874;25.320;2022-09-30T10:42:25;97007.28;;;33.90;30.45
20115;BME280;10218;42.874;25.320;2022-09-30T10:44:56;97002.16;;;34.61;29.57
20115;BME280;10218;42.874;25.320;2022-09-30T10:47:25;96996.88;;;34.21;30.24
20115;BME280;10218;42.874;25.320;2022-09-30T10:52:28;97007.78;;;35.87;28.90
20115;BME280;10218;42.874;25.320;2022-09-30T10:54:58;97003.91;;;32.57;32.41
20115;BME280;10218;42.874;25.320;2022-09-30T10:57:34;97005.16;;;31.35;35.40
20115;BME280;10218;42.874;25.320;2022-09-30T11:00:07;97002.28;;;30.26;37.37
20115;BME280;10218;42.874;25.320;2022-09-30T11:02:54;97011.31;;;30.12;37.03
20115;BME280;10218;42.874;25.320;2022-09-30T11:05:30;97018.72;;;29.18;37.78
20115;BME280;10218;42.874;25.320;2022-09-30T11:08:13;97006.53;;;29.24;38.05
20115;BME280;10218;42.874;25.320;2022-09-30T11:10:55;97005.84;;;29.94;37.82
20115;BME280;10218;42.874;25.320;2022-09-30T11:16:27;97019.25;;;29.20;39.11
20115;BME280;10218;42.874;25.320;2022-09-30T11:19:15;97012.63;;;28.11;39.85
20115;BME280;10218;42.874;25.320;2022-09-30T11:24:43;97007.66;;;30.49;37.10
20115;BME280;10218;42.874;25.320;2022-09-30T11:27:34;97009.22;;;32.45;34.08
20115;BME280;10218;42.874;25.320;2022-09-30T11:30:16;96997.63;;;32.12;33.58
20115;BME280;10218;42.874;25.320;2022-09-30T11:36:03;96994.47;;;36.34;28.60
20115;BME280;10218;42.874;25.320;2022-09-30T11:38:53;97008.59;;;35.87;29.98
20115;BME280;10218;42.874;25.320;2022-09-30T11:41:34;97007.72;;;36.37;27.82
20115;BME280;10218;42.874;25.320;2022-09-30T11:44:17;97007.94;;;35.90;27.95
20115;BME280;10218;42.874;25.320;2022-09-30T11:46:58;97005.75;;;36.17;27.96
20115;BME280;10218;42.874;25.320;2022-09-30T11:58:16;96986.12;;;35.22;28.54
20115;BME280;10218;42.874;25.320;2022-09-30T12:01:13;97016.31;;;32.91;31.13
20115;BME280;10218;42.874;25.320;2022-09-30T12:03:47;97009.66;;;30.76;35.25
20115;BME280;10218;42.874;25.320;2022-09-30T12:06:27;97002.69;;;31.47;35.41
20115;BME280;10218;42.874;25.320;2022-09-30T12:09:02;97004.91;;;32.61;32.34
20115;BME280;10218;42.874;25.320;2022-09-30T12:11:41;97011.34;;;33.10;32.17
20115;BME280;10218;42.874;25.320;2022-09-30T12:14:18;97008.88;;;32.47;32.23
20115;BME280;10218;42.874;25.320;2022-09-30T12:16:47;96997.84;;;33.82;30.69
20115;BME280;10218;42.874;25.320;2022-09-30T12:19:25;97006.03;;;35.82;28.41
20115;BME280;10218;42.874;25.320;2022-09-30T12:21:59;97001.66;;;35.23;28.66
20115;BME280;10218;42.874;25.320;2022-09-30T12:24:40;97001.84;;;35.17;29.18
20115;BME280;10218;42.874;25.320;2022-09-30T12:27:31;96997.50;;;34.01;29.65
20115;BME280;10218;42.874;25.320;2022-09-30T12:30:04;96993.72;;;33.54;30.31
20115;BME280;10218;42.874;25.320;2022-09-30T12:33:36;96997.34;;;33.15;31.23
20115;BME280;10218;42.874;25.320;2022-09-30T12:47:00;97023.00;;;35.31;28.79
20115;BME280;10218;42.874;25.320;2022-09-30T12:49:32;97025.72;;;33.77;30.15
20115;BME280;10218;42.874;25.320;2022-09-30T12:52:04;97023.44;;;33.71;29.85
20115;BME280;10218;42.874;25.320;2022-09-30T12:54:35;97024.16;;;33.37;30.20
20115;BME280;10218;42.874;25.320;2022-09-30T12:57:07;97014.16;;;30.99;33.74
20115;BME280;10218;42.874;25.320;2022-09-30T12:59:38;97014.44;;;30.25;34.62
20115;BME280;10218;42.874;25.320;2022-09-30T13:02:29;97019.34;;;30.74;34.06
20115;BME280;10218;42.874;25.320;2022-09-30T13:23:44;97045.19;;;32.45;30.58
20115;BME280;10218;42.874;25.320;2022-09-30T13:26:31;97040.53;;;34.50;28.37
20115;BME280;10218;42.874;25.320;2022-09-30T13:31:30;97051.00;;;29.55;32.74
20115;BME280;10218;42.874;25.320;2022-09-30T13:47:47;97051.63;;;29.90;33.75
20115;BME280;10218;42.874;25.320;2022-09-30T13:53:24;97058.25;;;29.22;35.11
20115;BME280;10218;42.874;25.320;2022-09-30T13:55:54;97064.88;;;30.06;34.61
20115;BME280;10218;42.874;25.320;2022-09-30T14:15:23;97073.81;;;35.69;28.05
20115;BME280;10218;42.874;25.320;2022-09-30T14:23:14;97071.06;;;29.98;34.13
20115;BME280;10218;42.874;25.320;2022-09-30T14:26:11;97084.25;;;29.59;34.46
20115;BME280;10218;42.874;25.320;2022-09-30T14:28:55;97082.91;;;30.82;32.31
20115;BME280;10218;42.874;25.320;2022-09-30T14:31:24;97090.66;;;32.84;30.03
20115;BME280;10218;42.874;25.320;2022-09-30T14:33:51;97088.34;;;33.87;28.02
20115;BME280;10218;42.874;25.320;2022-09-30T14:36:20;97093.44;;;35.64;26.43
20115;BME280;10218;42.874;25.320;2022-09-30T14:38:55;97089.75;;;34.96;27.55
20115;BME280;10218;42.874;25.320;2022-09-30T14:41:24;97091.75;;;33.36;29.42
20115;BME280;10218;42.874;25.320;2022-09-30T14:43:56;97096.37;;;32.87;30.06
20115;BME280;10218;42.874;25.320;2022-09-30T14:49:05;97096.75;;;32.28;30.89
20115;BME280;10218;42.874;25.320;2022-09-30T14:51:46;97101.78;;;32.48;30.13
20115;BME280;10218;42.874;25.320;2022-09-30T14:56:46;97106.19;;;31.36;33.13
20115;BME280;10218;42.874;25.320;2022-09-30T14:59:38;97112.34;;;31.74;33.03
20115;BME280;10218;42.874;25.320;2022-09-30T15:02:14;97116.12;;;29.65;36.20
20115;BME280;10218;42.874;25.320;2022-09-30T15:04:53;97115.59;;;31.21;35.49
20115;BME280;10218;42.874;25.320;2022-09-30T15:07:22;97108.75;;;30.73;36.76
20115;BME280;10218;42.874;25.320;2022-09-30T15:09:50;97127.03;;;30.50;36.64
20115;BME280;10218;42.874;25.320;2022-09-30T15:12:20;97133.63;;;28.74;40.11
20115;BME280;10218;42.874;25.320;2022-09-30T15:14:58;97124.34;;;27.82;42.59
20115;BME280;10218;42.874;25.320;2022-09-30T15:17:28;97131.69;;;27.27;43.37
20115;BME280;10218;42.874;25.320;2022-09-30T15:19:57;97134.69;;;27.26;44.30
20115;BME280;10218;42.874;25.320;2022-09-30T15:22:26;97139.44;;;26.59;45.17
20115;BME280;10218;42.874;25.320;2022-09-30T15:24:56;97136.72;;;26.59;45.86
20115;BME280;10218;42.874;25.320;2022-09-30T15:27:29;97135.56;;;26.15;47.63
20115;BME280;10218;42.874;25.320;2022-09-30T15:30:20;97132.47;;;25.86;50.17
20115;BME280;10218;42.874;25.320;2022-09-30T15:32:56;97137.78;;;25.45;53.21
20115;BME280;10218;42.874;25.320;2022-09-30T15:35:24;97142.06;;;25.21;55.99
20115;BME280;10218;42.874;25.320;2022-09-30T15:37:52;97148.91;;;25.24;57.69
20115;BME280;10218;42.874;25.320;2022-09-30T15:40:22;97146.69;;;25.21;58.65
20115;BME280;10218;42.874;25.320;2022-09-30T15:43:11;97155.75;;;25.26;59.08
20115;BME280;10218;42.874;25.320;2022-09-30T15:45:43;97157.34;;;24.43;65.08
20115;BME280;10218;42.874;25.320;2022-09-30T15:50:53;97158.72;;;24.46;67.05
20115;BME280;10218;42.874;25.320;2022-09-30T15:56:21;97157.94;;;24.18;72.08
20115;BME280;10218;42.874;25.320;2022-09-30T16:06:47;97183.91;;;23.34;86.00
20115;BME280;10218;42.874;25.320;2022-09-30T16:11:55;97190.78;;;23.36;88.63
20115;BME280;10218;42.874;25.320;2022-09-30T16:15:13;97188.22;;;23.47;88.00
20115;BME280;10218;42.874;25.320;2022-09-30T16:17:21;97189.75;;;23.21;89.90
20115;BME280;10218;42.874;25.320;2022-09-30T16:19:56;97195.22;;;23.04;91.49
20115;BME280;10218;42.874;25.320;2022-09-30T16:22:53;97193.81;;;23.01;92.76
20115;BME280;10218;42.874;25.320;2022-09-30T16:28:14;97184.66;;;22.41;100.00
20115;BME280;10218;42.874;25.320;2022-09-30T16:30:44;97202.31;;;22.38;100.00
20115;BME280;10218;42.874;25.320;2022-09-30T16:33:13;97199.88;;;22.25;100.00
20115;BME280;10218;42.874;25.320;2022-09-30T16:35:42;97203.00;;;21.89;100.00
20115;BME280;10218;42.874;25.320;2022-09-30T16:38:15;97207.94;;;22.03;100.00
20115;BME280;10218;42.874;25.320;2022-09-30T16:40:43;97208.09;;;21.85;100.00
20115;BME280;10218;42.874;25.320;2022-09-30T16:43:10;97210.31;;;22.00;100.00
20115;BME280;10218;42.874;25.320;2022-09-30T16:45:38;97218.75;;;22.15;100.00
20115;BME280;10218;42.874;25.320;2022-09-30T16:48:14;97234.56;;;22.01;100.00
20115;BME280;10218;42.874;25.320;2022-09-30T16:53:14;97242.91;;;21.71;100.00
20115;BME280;10218;42.874;25.320;2022-09-30T16:55:41;97240.81;;;21.50;100.00
20115;BME280;10218;42.874;25.320;2022-09-30T16:58:09;97245.53;;;21.55;100.00
20115;BME280;10218;42.874;25.320;2022-09-30T17:00:43;97244.34;;;21.62;100.00
20115;BME280;10218;42.874;25.320;2022-09-30T17:03:13;97258.16;;;21.72;100.00
20115;BME280;10218;42.874;25.320;2022-09-30T17:05:43;97262.88;;;21.77;100.00
20115;BME280;10218;42.874;25.320;2022-09-30T17:08:11;97264.09;;;21.58;100.00
20115;BME280;10218;42.874;25.320;2022-09-30T17:10:44;97267.31;;;21.43;100.00
20115;BME280;10218;42.874;25.320;2022-09-30T17:13:13;97255.41;;;21.32;100.00
20115;BME280;10218;42.874;25.320;2022-09-30T17:15:49;97267.31;;;21.20;100.00
20115;BME280;10218;42.874;25.320;2022-09-30T17:18:16;97260.72;;;21.16;100.00
20115;BME280;10218;42.874;25.320;2022-09-30T17:20:45;97270.22;;;20.83;100.00
20115;BME280;10218;42.874;25.320;2022-09-30T17:23:22;97263.97;;;20.71;100.00
20115;BME280;10218;42.874;25.320;2022-09-30T17:25:51;97272.44;;;20.63;100.00
20115;BME280;10218;42.874;25.320;2022-09-30T17:28:20;97269.72;;;20.52;100.00
20115;BME280;10218;42.874;25.320;2022-09-30T17:30:47;97284.38;;;20.32;100.00
20115;BME280;10218;42.874;25.320;2022-09-30T17:33:17;97292.06;;;20.35;100.00
20115;BME280;10218;42.874;25.320;2022-09-30T17:35:56;97294.63;;;20.30;100.00
20115;BME280;10218;42.874;25.320;2022-09-30T17:38:25;97303.81;;;20.29;100.00
20115;BME280;10218;42.874;25.320;2022-09-30T17:40:53;97309.50;;;20.10;100.00
20115;BME280;10218;42.874;25.320;2022-09-30T17:43:38;97303.72;;;20.06;100.00
20115;BME280;10218;42.874;25.320;2022-09-30T17:46:06;97314.84;;;20.16;100.00
20115;BME280;10218;42.874;25.320;2022-09-30T17:48:34;97312.44;;;20.08;100.00
20115;BME280;10218;42.874;25.320;2022-09-30T17:51:01;97304.38;;;20.01;100.00
20115;BME280;10218;42.874;25.320;2022-09-30T17:53:28;97313.59;;;19.82;100.00
20115;BME280;10218;42.874;25.320;2022-09-30T17:56:02;97302.59;;;19.95;100.00
20115;BME280;10218;42.874;25.320;2022-09-30T17:58:30;97319.75;;;19.71;100.00
20115;BME280;10218;42.874;25.320;2022-09-30T18:00:57;97319.69;;;19.96;100.00
20115;BME280;10218;42.874;25.320;2022-09-30T18:03:25;97310.66;;;19.84;100.00
20115;BME280;10218;42.874;25.320;2022-09-30T18:05:57;97318.09;;;19.52;100.00
20115;BME280;10218;42.874;25.320;2022-09-30T18:08:25;97324.13;;;19.54;100.00
20115;BME280;10218;42.874;25.320;2022-09-30T18:10:55;97322.19;;;19.36;100.00
20115;BME280;10218;42.874;25.320;2022-09-30T18:13:26;97329.44;;;19.42;100.00
20115;BME280;10218;42.874;25.320;2022-09-30T18:15:54;97336.31;;;19.45;100.00
20115;BME280;10218;42.874;25.320;2022-09-30T18:18:21;97341.09;;;19.43;100.00
20115;BME280;10218;42.874;25.320;2022-09-30T18:20:49;97340.56;;;19.34;100.00
20115;BME280;10218;42.874;25.320;2022-09-30T18:23:16;97352.34;;;19.46;100.00
20115;BME280;10218;42.874;25.320;2022-09-30T18:25:47;97348.13;;;19.26;100.00
20115;BME280;10218;42.874;25.320;2022-09-30T18:28:15;97339.75;;;19.09;100.00
